sensor_id;sensor_type;location;lat;lon;timestamp;temperature;humidity
39919;DHT22;25589;51.552;13.424;2023-02-26T00:00:07;1.40;99.90
39919;DHT22;25589;51.552;13.424;2023-02-26T00:02:36;1.40;99.90
39919;DHT22;25589;51.552;13.424;2023-02-26T00:05:04;1.30;99.90
39919;DHT22;25589;51.552;13.424;2023-02-26T00:07:30;1.30;99.90
39919;DHT22;25589;51.552;13.424;2023-02-26T00:09:55;1.30;99.90
39919;DHT22;25589;51.552;13.424;2023-02-26T00:12:21;1.30;99.90
39919;DHT22;25589;51.552;13.424;2023-02-26T00:14:47;2.20;99.90
39919;DHT22;25589;51.552;13.424;2023-02-26T00:17:39;2.20;99.90
39919;DHT22;25589;51.552;13.424;2023-02-26T00:20:06;1.20;99.90
39919;DHT22;25589;51.552;13.424;2023-02-26T00:22:32;1.30;99.90
39919;DHT22;25589;51.552;13.424;2023-02-26T00:24:58;2.50;99.90
39919;DHT22;25589;51.552;13.424;2023-02-26T00:27:23;2.20;99.90
39919;DHT22;25589;51.552;13.424;2023-02-26T00:29:49;1.40;99.90
39919;DHT22;25589;51.552;13.424;2023-02-26T00:32:15;1.40;99.90
39919;DHT22;25589;51.552;13.424;2023-02-26T00:34:44;2.10;99.90
39919;DHT22;25589;51.552;13.424;2023-02-26T00:42:35;1.30;99.90
39919;DHT22;25589;51.552;13.424;2023-02-26T00:45:01;1.20;99.90
39919;DHT22;25589;51.552;13.424;2023-02-26T00:50:25;1.30;99.90
39919;DHT22;25589;51.552;13.424;2023-02-26T00:55:26;1.10;99.90
39919;DHT22;25589;51.552;13.424;2023-02-26T00:57:52;1.30;99.90
39919;DHT22;25589;51.552;13.424;2023-02-26T01:00:18;1.30;99.90
39919;DHT22;25589;51.552;13.424;2023-02-26T01:02:45;1.20;99.90
39919;DHT22;25589;51.552;13.424;2023-02-26T01:05:12;1.20;99.90
39919;DHT22;25589;51.552;13.424;2023-02-26T01:07:51;1.50;99.90
39919;DHT22;25589;51.552;13.424;2023-02-26T01:10:19;1.40;99.90
39919;DHT22;25589;51.552;13.424;2023-02-26T01:12:45;2.20;99.90
39919;DHT22;25589;51.552;13.424;2023-02-26T01:15:12;1.00;99.90
39919;DHT22;25589;51.552;13.424;2023-02-26T01:17:59;1.10;99.90
39919;DHT22;25589;51.552;13.424;2023-02-26T01:20:35;1.30;99.90
39919;DHT22;25589;51.552;13.424;2023-02-26T01:23:06;1.90;99.90
39919;DHT22;25589;51.552;13.424;2023-02-26T01:25:48;1.60;99.90
39919;DHT22;25589;51.552;13.424;2023-02-26T01:28:14;1.40;99.90
39919;DHT22;25589;51.552;13.424;2023-02-26T01:30:40;1.10;99.90
39919;DHT22;25589;51.552;13.424;2023-02-26T01:33:30;1.20;99.90
39919;DHT22;25589;51.552;13.424;2023-02-26T01:36:06;1.10;99.90
39919;DHT22;25589;51.552;13.424;2023-02-26T01:41:15;0.50;99.90
39919;DHT22;25589;51.552;13.424;2023-02-26T01:48:57;1.40;99.90
39919;DHT22;25589;51.552;13.424;2023-02-26T01:51:53;1.00;99.90
39919;DHT22;25589;51.552;13.424;2023-02-26T01:54:31;0.20;99.90
39919;DHT22;25589;51.552;13.424;2023-02-26T01:57:01;0.50;99.90
39919;DHT22;25589;51.552;13.424;2023-02-26T01:59:37;1.10;99.90
39919;DHT22;25589;51.552;13.424;2023-02-26T02:02:07;1.60;99.90
39919;DHT22;25589;51.552;13.424;2023-02-26T02:04:34;1.20;99.90
39919;DHT22;25589;51.552;13.424;2023-02-26T02:07:00;2.00;99.90
39919;DHT22;25589;51.552;13.424;2023-02-26T02:09:26;2.10;99.90
39919;DHT22;25589;51.552;13.424;2023-02-26T02:17:43;1.30;99.90
39919;DHT22;25589;51.552;13.424;2023-02-26T02:20:30;1.30;99.90
39919;DHT22;25589;51.552;13.424;2023-02-26T02:28:23;2.30;99.90
39919;DHT22;25589;51.552;13.424;2023-02-26T02:33:37;0.90;99.90
39919;DHT22;25589;51.552;13.424;2023-02-26T02:36:12;1.80;99.90
39919;DHT22;25589;51.552;13.424;2023-02-26T02:38:46;1.90;99.90
39919;DHT22;25589;51.552;13.424;2023-02-26T02:41:24;1.50;99.90
39919;DHT22;25589;51.552;13.424;2023-02-26T02:43:54;0.40;99.90
39919;DHT22;25589;51.552;13.424;2023-02-26T02:46:25;1.10;99.90
39919;DHT22;25589;51.552;13.424;2023-02-26T02:49:04;2.20;99.90
39919;DHT22;25589;51.552;13.424;2023-02-26T02:51:45;1.50;99.90
39919;DHT22;25589;51.552;13.424;2023-02-26T02:54:24;1.50;99.90
39919;DHT22;25589;51.552;13.424;2023-02-26T02:56:53;1.40;99.90
39919;DHT22;25589;51.552;13.424;2023-02-26T02:59:35;1.70;99.90
39919;DHT22;25589;51.552;13.424;2023-02-26T03:02:16;1.80;99.90
39919;DHT22;25589;51.552;13.424;2023-02-26T03:04:44;1.60;99.90
39919;DHT22;25589;51.552;13.424;2023-02-26T03:07:09;1.60;99.90
39919;DHT22;25589;51.552;13.424;2023-02-26T03:09:35;2.10;99.90
39919;DHT22;25589;51.552;13.424;2023-02-26T03:12:02;1.10;99.90
39919;DHT22;25589;51.552;13.424;2023-02-26T03:14:30;1.40;99.90
39919;DHT22;25589;51.552;13.424;2023-02-26T03:17:16;1.40;99.90
39919;DHT22;25589;51.552;13.424;2023-02-26T03:20:03;1.70;99.90
39919;DHT22;25589;51.552;13.424;2023-02-26T03:25:40;0.40;99.90
39919;DHT22;25589;51.552;13.424;2023-02-26T03:28:37;1.30;99.90
39919;DHT22;25589;51.552;13.424;2023-02-26T03:31:14;1.30;99.90
39919;DHT22;25589;51.552;13.424;2023-02-26T03:36:39;2.00;99.90
39919;DHT22;25589;51.552;13.424;2023-02-26T03:39:37;1.40;99.90
39919;DHT22;25589;51.552;13.424;2023-02-26T03:42:23;0.70;99.90
39919;DHT22;25589;51.552;13.424;2023-02-26T03:45:01;1.60;99.90
39919;DHT22;25589;51.552;13.424;2023-02-26T03:47:30;1.50;99.90
39919;DHT22;25589;51.552;13.424;2023-02-26T03:50:23;1.40;99.90
39919;DHT22;25589;51.552;13.424;2023-02-26T03:53:13;1.40;99.90
39919;DHT22;25589;51.552;13.424;2023-02-26T03:58:47;2.00;99.90
39919;DHT22;25589;51.552;13.424;2023-02-26T04:07:11;2.40;99.90
39919;DHT22;25589;51.552;13.424;2023-02-26T04:09:40;2.80;99.90
39919;DHT22;25589;51.552;13.424;2023-02-26T04:12:06;2.90;99.90
39919;DHT22;25589;51.552;13.424;2023-02-26T04:14:32;1.80;99.90
39919;DHT22;25589;51.552;13.424;2023-02-26T04:16:57;2.50;99.90
39919;DHT22;25589;51.552;13.424;2023-02-26T04:19:23;1.50;99.90
39919;DHT22;25589;51.552;13.424;2023-02-26T04:21:49;1.70;99.90
39919;DHT22;25589;51.552;13.424;2023-02-26T04:24:15;1.60;99.90
39919;DHT22;25589;51.552;13.424;2023-02-26T04:26:43;1.70;99.90
39919;DHT22;25589;51.552;13.424;2023-02-26T04:29:08;1.50;99.90
39919;DHT22;25589;51.552;13.424;2023-02-26T04:34:00;1.50;99.90
39919;DHT22;25589;51.552;13.424;2023-02-26T04:36:26;2.40;99.90
39919;DHT22;25589;51.552;13.424;2023-02-26T04:38:51;2.00;99.90
39919;DHT22;25589;51.552;13.424;2023-02-26T04:41:17;2.90;99.90
39919;DHT22;25589;51.552;13.424;2023-02-26T04:43:46;1.90;99.90
39919;DHT22;25589;51.552;13.424;2023-02-26T04:46:21;1.70;99.90
39919;DHT22;25589;51.552;13.424;2023-02-26T04:48:47;1.40;99.90
39919;DHT22;25589;51.552;13.424;2023-02-26T04:51:13;2.00;99.90
39919;DHT22;25589;51.552;13.424;2023-02-26T04:56:06;1.70;99.90
39919;DHT22;25589;51.552;13.424;2023-02-26T04:58:32;1.60;99.90
39919;DHT22;25589;51.552;13.424;2023-02-26T05:01:03;1.70;99.90
39919;DHT22;25589;51.552;13.424;2023-02-26T05:03:29;1.70;99.90
39919;DHT22;25589;51.552;13.424;2023-02-26T05:05:54;1.70;99.90
39919;DHT22;25589;51.552;13.424;2023-02-26T05:08:20;1.70;99.90
39919;DHT22;25589;51.552;13.424;2023-02-26T05:10:46;2.80;99.90
39919;DHT22;25589;51.552;13.424;2023-02-26T05:13:11;1.90;99.90
39919;DHT22;25589;51.552;13.424;2023-02-26T05:15:37;1.50;99.90
39919;DHT22;25589;51.552;13.424;2023-02-26T05:18:03;1.70;99.90
39919;DHT22;25589;51.552;13.424;2023-02-26T05:20:28;1.10;99.90
39919;DHT22;25589;51.552;13.424;2023-02-26T05:22:54;2.50;99.90
39919;DHT22;25589;51.552;13.424;2023-02-26T05:25:20;1.70;99.90
39919;DHT22;25589;51.552;13.424;2023-02-26T05:27:46;1.60;99.90
39919;DHT22;25589;51.552;13.424;2023-02-26T05:30:14;1.50;99.90
39919;DHT22;25589;51.552;13.424;2023-02-26T05:32:42;1.50;99.90
39919;DHT22;25589;51.552;13.424;2023-02-26T05:35:08;2.20;99.90
39919;DHT22;25589;51.552;13.424;2023-02-26T05:37:35;1.70;99.90
39919;DHT22;25589;51.552;13.424;2023-02-26T05:42:26;1.30;99.90
39919;DHT22;25589;51.552;13.424;2023-02-26T05:44:52;0.10;99.90
39919;DHT22;25589;51.552;13.424;2023-02-26T05:47:17;1.30;99.90
39919;DHT22;25589;51.552;13.424;2023-02-26T05:49:43;1.90;99.90
39919;DHT22;25589;51.552;13.424;2023-02-26T05:52:08;2.10;99.90
39919;DHT22;25589;51.552;13.424;2023-02-26T05:54:35;1.40;99.90
39919;DHT22;25589;51.552;13.424;2023-02-26T05:57:01;2.00;99.90
39919;DHT22;25589;51.552;13.424;2023-02-26T05:59:26;1.40;99.90
39919;DHT22;25589;51.552;13.424;2023-02-26T06:01:52;1.10;99.90
39919;DHT22;25589;51.552;13.424;2023-02-26T06:04:17;2.10;99.90
39919;DHT22;25589;51.552;13.424;2023-02-26T06:06:43;1.30;99.90
39919;DHT22;25589;51.552;13.424;2023-02-26T06:09:08;1.30;99.90
39919;DHT22;25589;51.552;13.424;2023-02-26T06:11:34;2.10;99.90
39919;DHT22;25589;51.552;13.424;2023-02-26T06:14:00;1.40;99.90
39919;DHT22;25589;51.552;13.424;2023-02-26T06:16:25;1.30;99.90
39919;DHT22;25589;51.552;13.424;2023-02-26T06:18:51;1.30;99.90
39919;DHT22;25589;51.552;13.424;2023-02-26T06:23:43;1.80;99.90
39919;DHT22;25589;51.552;13.424;2023-02-26T06:26:09;0.40;99.90
39919;DHT22;25589;51.552;13.424;2023-02-26T06:28:35;1.00;99.90
39919;DHT22;25589;51.552;13.424;2023-02-26T06:33:26;1.40;99.90
39919;DHT22;25589;51.552;13.424;2023-02-26T06:35:52;1.60;99.90
39919;DHT22;25589;51.552;13.424;2023-02-26T06:38:18;2.20;99.90
39919;DHT22;25589;51.552;13.424;2023-02-26T06:40:44;1.30;99.90
39919;DHT22;25589;51.552;13.424;2023-02-26T06:43:10;1.40;99.90
39919;DHT22;25589;51.552;13.424;2023-02-26T06:45:35;1.30;99.90
39919;DHT22;25589;51.552;13.424;2023-02-26T06:48:01;1.70;99.90
39919;DHT22;25589;51.552;13.424;2023-02-26T06:50:27;1.30;99.90
39919;DHT22;25589;51.552;13.424;2023-02-26T06:52:52;1.30;99.90
39919;DHT22;25589;51.552;13.424;2023-02-26T06:55:18;1.40;99.90
39919;DHT22;25589;51.552;13.424;2023-02-26T06:57:46;1.40;99.90
39919;DHT22;25589;51.552;13.424;2023-02-26T07:00:12;1.40;99.90
39919;DHT22;25589;51.552;13.424;2023-02-26T07:02:38;1.10;99.90
39919;DHT22;25589;51.552;13.424;2023-02-26T07:05:04;1.40;99.90
39919;DHT22;25589;51.552;13.424;2023-02-26T07:07:29;0.70;99.90
39919;DHT22;25589;51.552;13.424;2023-02-26T07:09:56;2.40;99.90
39919;DHT22;25589;51.552;13.424;2023-02-26T07:12:22;1.60;99.90
39919;DHT22;25589;51.552;13.424;2023-02-26T07:14:47;1.20;99.90
39919;DHT22;25589;51.552;13.424;2023-02-26T07:17:13;1.60;99.90
39919;DHT22;25589;51.552;13.424;2023-02-26T07:19:45;1.60;99.90
39919;DHT22;25589;51.552;13.424;2023-02-26T07:22:11;1.60;99.90
39919;DHT22;25589;51.552;13.424;2023-02-26T07:24:37;1.70;99.90
39919;DHT22;25589;51.552;13.424;2023-02-26T07:27:02;1.60;99.90
39919;DHT22;25589;51.552;13.424;2023-02-26T07:29:28;1.70;99.90
39919;DHT22;25589;51.552;13.424;2023-02-26T07:31:53;1.70;99.90
39919;DHT22;25589;51.552;13.424;2023-02-26T07:34:19;1.70;99.90
39919;DHT22;25589;51.552;13.424;2023-02-26T07:36:45;1.60;99.90
39919;DHT22;25589;51.552;13.424;2023-02-26T07:39:10;1.70;99.90
39919;DHT22;25589;51.552;13.424;2023-02-26T07:41:36;1.20;99.90
39919;DHT22;25589;51.552;13.424;2023-02-26T07:44:02;2.40;99.90
39919;DHT22;25589;51.552;13.424;2023-02-26T07:46:27;1.00;99.90
39919;DHT22;25589;51.552;13.424;2023-02-26T07:48:54;1.60;99.90
39919;DHT22;25589;51.552;13.424;2023-02-26T07:51:19;2.30;99.90
39919;DHT22;25589;51.552;13.424;2023-02-26T07:53:45;1.20;99.90
39919;DHT22;25589;51.552;13.424;2023-02-26T07:56:10;2.70;99.90
39919;DHT22;25589;51.552;13.424;2023-02-26T07:58:36;1.80;99.90
39919;DHT22;25589;51.552;13.424;2023-02-26T08:01:02;1.80;99.90
39919;DHT22;25589;51.552;13.424;2023-02-26T08:03:27;1.30;99.90
39919;DHT22;25589;51.552;13.424;2023-02-26T08:05:53;2.00;99.90
39919;DHT22;25589;51.552;13.424;2023-02-26T08:08:19;2.30;99.90
39919;DHT22;25589;51.552;13.424;2023-02-26T08:10:44;2.10;99.90
39919;DHT22;25589;51.552;13.424;2023-02-26T08:13:10;1.60;99.90
39919;DHT22;25589;51.552;13.424;2023-02-26T08:15:35;2.00;99.90
39919;DHT22;25589;51.552;13.424;2023-02-26T08:18:01;2.00;99.90
39919;DHT22;25589;51.552;13.424;2023-02-26T08:20:27;2.00;99.90
39919;DHT22;25589;51.552;13.424;2023-02-26T08:22:52;2.20;99.90
39919;DHT22;25589;51.552;13.424;2023-02-26T08:25:18;2.10;99.90
39919;DHT22;25589;51.552;13.424;2023-02-26T08:27:44;2.10;99.90
39919;DHT22;25589;51.552;13.424;2023-02-26T08:30:13;1.20;99.90
39919;DHT22;25589;51.552;13.424;2023-02-26T08:32:38;1.90;99.90
39919;DHT22;25589;51.552;13.424;2023-02-26T08:35:06;2.60;99.90
39919;DHT22;25589;51.552;13.424;2023-02-26T08:37:32;2.60;99.90
39919;DHT22;25589;51.552;13.424;2023-02-26T08:39:57;2.30;99.90
39919;DHT22;25589;51.552;13.424;2023-02-26T08:42:23;2.50;99.90
39919;DHT22;25589;51.552;13.424;2023-02-26T08:44:49;2.30;99.90
39919;DHT22;25589;51.552;13.424;2023-02-26T08:47:14;2.00;99.90
39919;DHT22;25589;51.552;13.424;2023-02-26T08:49:40;2.50;99.90
39919;DHT22;25589;51.552;13.424;2023-02-26T08:52:05;2.60;99.90
39919;DHT22;25589;51.552;13.424;2023-02-26T08:54:31;1.80;99.90
39919;DHT22;25589;51.552;13.424;2023-02-26T08:56:56;2.00;99.90
39919;DHT22;25589;51.552;13.424;2023-02-26T08:59:23;2.10;99.90
39919;DHT22;25589;51.552;13.424;2023-02-26T09:01:49;2.60;99.90
39919;DHT22;25589;51.552;13.424;2023-02-26T09:04:15;1.70;99.90
39919;DHT22;25589;51.552;13.424;2023-02-26T09:06:41;2.90;99.90
39919;DHT22;25589;51.552;13.424;2023-02-26T09:09:07;2.70;99.90
39919;DHT22;25589;51.552;13.424;2023-02-26T09:11:33;2.70;99.90
39919;DHT22;25589;51.552;13.424;2023-02-26T09:13:59;2.90;99.90
39919;DHT22;25589;51.552;13.424;2023-02-26T09:16:25;2.70;99.90
39919;DHT22;25589;51.552;13.424;2023-02-26T09:18:50;4.20;99.90
39919;DHT22;25589;51.552;13.424;2023-02-26T09:21:16;3.20;99.90
39919;DHT22;25589;51.552;13.424;2023-02-26T09:23:42;2.70;99.90
39919;DHT22;25589;51.552;13.424;2023-02-26T09:26:07;3.40;99.90
39919;DHT22;25589;51.552;13.424;2023-02-26T09:28:34;3.20;99.90
39919;DHT22;25589;51.552;13.424;2023-02-26T09:31:00;3.90;99.90
39919;DHT22;25589;51.552;13.424;2023-02-26T09:33:25;4.00;99.90
39919;DHT22;25589;51.552;13.424;2023-02-26T09:35:51;3.60;99.90
39919;DHT22;25589;51.552;13.424;2023-02-26T09:38:18;3.80;99.90
39919;DHT22;25589;51.552;13.424;2023-02-26T09:40:57;3.60;99.90
39919;DHT22;25589;51.552;13.424;2023-02-26T09:46:03;4.00;99.90
39919;DHT22;25589;51.552;13.424;2023-02-26T09:48:30;3.90;99.90
39919;DHT22;25589;51.552;13.424;2023-02-26T09:50:57;4.30;99.90
39919;DHT22;25589;51.552;13.424;2023-02-26T09:53:26;4.20;99.90
39919;DHT22;25589;51.552;13.424;2023-02-26T09:58:33;3.20;99.90
39919;DHT22;25589;51.552;13.424;2023-02-26T10:06:23;3.90;99.90
39919;DHT22;25589;51.552;13.424;2023-02-26T10:09:12;4.40;99.90
39919;DHT22;25589;51.552;13.424;2023-02-26T10:11:50;4.10;99.90
39919;DHT22;25589;51.552;13.424;2023-02-26T10:14:23;4.10;99.90
39919;DHT22;25589;51.552;13.424;2023-02-26T10:16:55;4.50;99.90
39919;DHT22;25589;51.552;13.424;2023-02-26T10:19:27;4.00;99.90
39919;DHT22;25589;51.552;13.424;2023-02-26T10:22:12;4.10;99.90
39919;DHT22;25589;51.552;13.424;2023-02-26T10:24:46;3.30;99.90
39919;DHT22;25589;51.552;13.424;2023-02-26T10:28:00;4.60;99.90
39919;DHT22;25589;51.552;13.424;2023-02-26T10:30:02;4.70;99.90
39919;DHT22;25589;51.552;13.424;2023-02-26T10:33:01;3.80;99.90
39919;DHT22;25589;51.552;13.424;2023-02-26T10:35:31;3.90;99.90
39919;DHT22;25589;51.552;13.424;2023-02-26T10:40:38;3.70;99.90
39919;DHT22;25589;51.552;13.424;2023-02-26T10:43:20;4.80;99.90
39919;DHT22;25589;51.552;13.424;2023-02-26T10:45:57;5.60;99.90
39919;DHT22;25589;51.552;13.424;2023-02-26T10:48:47;5.20;99.90
39919;DHT22;25589;51.552;13.424;2023-02-26T10:51:20;4.40;99.90
39919;DHT22;25589;51.552;13.424;2023-02-26T10:53:55;4.40;99.90
39919;DHT22;25589;51.552;13.424;2023-02-26T10:56:33;4.80;99.90
39919;DHT22;25589;51.552;13.424;2023-02-26T10:58:59;5.10;99.90
39919;DHT22;25589;51.552;13.424;2023-02-26T11:01:27;6.00;99.90
39919;DHT22;25589;51.552;13.424;2023-02-26T11:04:06;5.40;99.90
39919;DHT22;25589;51.552;13.424;2023-02-26T11:09:06;6.10;99.90
39919;DHT22;25589;51.552;13.424;2023-02-26T11:11:54;4.20;99.90
39919;DHT22;25589;51.552;13.424;2023-02-26T11:14:21;5.40;99.90
39919;DHT22;25589;51.552;13.424;2023-02-26T11:16:52;4.60;99.90
39919;DHT22;25589;51.552;13.424;2023-02-26T11:19:25;4.80;99.90
39919;DHT22;25589;51.552;13.424;2023-02-26T11:24:28;4.30;99.90
39919;DHT22;25589;51.552;13.424;2023-02-26T11:26:55;4.40;99.90
39919;DHT22;25589;51.552;13.424;2023-02-26T11:29:22;4.60;99.90
39919;DHT22;25589;51.552;13.424;2023-02-26T11:31:53;5.10;99.90
39919;DHT22;25589;51.552;13.424;2023-02-26T11:34:24;6.40;99.90
39919;DHT22;25589;51.552;13.424;2023-02-26T11:36:52;4.90;99.90
39919;DHT22;25589;51.552;13.424;2023-02-26T11:39:25;6.40;99.90
39919;DHT22;25589;51.552;13.424;2023-02-26T11:44:31;5.90;99.90
39919;DHT22;25589;51.552;13.424;2023-02-26T11:47:02;5.50;99.90
39919;DHT22;25589;51.552;13.424;2023-02-26T11:49:28;5.50;99.90
39919;DHT22;25589;51.552;13.424;2023-02-26T11:52:39;5.80;99.90
39919;DHT22;25589;51.552;13.424;2023-02-26T11:55:21;6.10;99.90
39919;DHT22;25589;51.552;13.424;2023-02-26T11:57:51;5.30;99.90
39919;DHT22;25589;51.552;13.424;2023-02-26T12:00:38;6.00;99.90
39919;DHT22;25589;51.552;13.424;2023-02-26T12:03:09;5.80;99.90
39919;DHT22;25589;51.552;13.424;2023-02-26T12:05:40;5.90;99.90
39919;DHT22;25589;51.552;13.424;2023-02-26T12:08:17;7.10;99.90
39919;DHT22;25589;51.552;13.424;2023-02-26T12:19:48;4.90;99.90
39919;DHT22;25589;51.552;13.424;2023-02-26T12:25:53;4.50;99.90
39919;DHT22;25589;51.552;13.424;2023-02-26T12:31:20;5.30;99.90
39919;DHT22;25589;51.552;13.424;2023-02-26T12:42:42;4.90;99.90
39919;DHT22;25589;51.552;13.424;2023-02-26T12:45:18;5.10;99.90
39919;DHT22;25589;51.552;13.424;2023-02-26T12:47:59;5.80;99.90
39919;DHT22;25589;51.552;13.424;2023-02-26T12:58:56;4.90;99.90
39919;DHT22;25589;51.552;13.424;2023-02-26T13:07:40;4.90;99.90
39919;DHT22;25589;51.552;13.424;2023-02-26T13:19:04;5.30;99.90
39919;DHT22;25589;51.552;13.424;2023-02-26T13:21:43;4.60;99.90
39919;DHT22;25589;51.552;13.424;2023-02-26T13:24:21;5.90;99.90
39919;DHT22;25589;51.552;13.424;2023-02-26T13:26:47;5.10;99.90
39919;DHT22;25589;51.552;13.424;2023-02-26T13:29:24;5.20;99.90
39919;DHT22;25589;51.552;13.424;2023-02-26T13:31:56;5.50;99.90
39919;DHT22;25589;51.552;13.424;2023-02-26T13:34:33;5.30;99.90
39919;DHT22;25589;51.552;13.424;2023-02-26T13:37:01;5.80;99.90
39919;DHT22;25589;51.552;13.424;2023-02-26T13:39:50;5.20;99.90
39919;DHT22;25589;51.552;13.424;2023-02-26T13:42:32;4.90;99.90
39919;DHT22;25589;51.552;13.424;2023-02-26T13:45:29;5.50;99.90
39919;DHT22;25589;51.552;13.424;2023-02-26T13:49:00;5.70;99.90
39919;DHT22;25589;51.552;13.424;2023-02-26T13:51:30;5.40;99.90
39919;DHT22;25589;51.552;13.424;2023-02-26T13:54:31;5.60;99.90
39919;DHT22;25589;51.552;13.424;2023-02-26T13:56:54;5.70;99.90
39919;DHT22;25589;51.552;13.424;2023-02-26T14:04:53;5.40;99.90
39919;DHT22;25589;51.552;13.424;2023-02-26T14:10:25;6.10;99.90
39919;DHT22;25589;51.552;13.424;2023-02-26T14:13:16;5.50;99.90
39919;DHT22;25589;51.552;13.424;2023-02-26T14:16:02;5.60;99.90
39919;DHT22;25589;51.552;13.424;2023-02-26T14:18:52;5.60;99.90
39919;DHT22;25589;51.552;13.424;2023-02-26T14:24:12;5.40;99.90
39919;DHT22;25589;51.552;13.424;2023-02-26T14:26:44;5.60;99.90
39919;DHT22;25589;51.552;13.424;2023-02-26T14:29:19;5.10;99.90
39919;DHT22;25589;51.552;13.424;2023-02-26T14:32:04;5.60;99.90
39919;DHT22;25589;51.552;13.424;2023-02-26T14:34:33;6.00;99.90
39919;DHT22;25589;51.552;13.424;2023-02-26T14:37:03;5.60;99.90
39919;DHT22;25589;51.552;13.424;2023-02-26T14:39:42;6.20;99.90
39919;DHT22;25589;51.552;13.424;2023-02-26T14:42:19;7.60;99.90
39919;DHT22;25589;51.552;13.424;2023-02-26T14:44:49;7.10;99.90
39919;DHT22;25589;51.552;13.424;2023-02-26T14:47:15;7.40;99.90
39919;DHT22;25589;51.552;13.424;2023-02-26T14:49:45;7.40;99.90
39919;DHT22;25589;51.552;13.424;2023-02-26T14:52:18;7.00;99.90
39919;DHT22;25589;51.552;13.424;2023-02-26T15:14:57;5.70;99.90
39919;DHT22;25589;51.552;13.424;2023-02-26T15:17:38;5.40;99.90
39919;DHT22;25589;51.552;13.424;2023-02-26T15:25:42;4.50;99.90
39919;DHT22;25589;51.552;13.424;2023-02-26T15:28:28;5.70;99.90
39919;DHT22;25589;51.552;13.424;2023-02-26T15:30:54;5.80;99.90
39919;DHT22;25589;51.552;13.424;2023-02-26T15:33:23;5.50;99.90
39919;DHT22;25589;51.552;13.424;2023-02-26T15:35:50;5.50;99.90
39919;DHT22;25589;51.552;13.424;2023-02-26T15:38:17;5.80;99.90
39919;DHT22;25589;51.552;13.424;2023-02-26T15:40:43;5.40;99.90
39919;DHT22;25589;51.552;13.424;2023-02-26T15:43:20;5.50;99.90
39919;DHT22;25589;51.552;13.424;2023-02-26T15:45:47;5.40;99.90
39919;DHT22;25589;51.552;13.424;2023-02-26T15:48:21;5.50;99.90
39919;DHT22;25589;51.552;13.424;2023-02-26T15:50:53;5.30;99.90
39919;DHT22;25589;51.552;13.424;2023-02-26T15:53:45;5.30;99.90
39919;DHT22;25589;51.552;13.424;2023-02-26T15:56:28;5.20;99.90
39919;DHT22;25589;51.552;13.424;2023-02-26T15:58:55;5.90;99.90
39919;DHT22;25589;51.552;13.424;2023-02-26T16:01:24;5.90;99.90
39919;DHT22;25589;51.552;13.424;2023-02-26T16:03:53;5.00;99.90
39919;DHT22;25589;51.552;13.424;2023-02-26T16:06:27;5.20;99.90
39919;DHT22;25589;51.552;13.424;2023-02-26T16:08:54;4.60;99.90
39919;DHT22;25589;51.552;13.424;2023-02-26T16:11:20;6.40;99.90
39919;DHT22;25589;51.552;13.424;2023-02-26T16:13:49;5.10;99.90
39919;DHT22;25589;51.552;13.424;2023-02-26T16:16:22;5.70;99.90
39919;DHT22;25589;51.552;13.424;2023-02-26T16:18:49;5.00;99.90
39919;DHT22;25589;51.552;13.424;2023-02-26T16:21:30;4.70;99.90
39919;DHT22;25589;51.552;13.424;2023-02-26T16:23:58;4.70;99.90
39919;DHT22;25589;51.552;13.424;2023-02-26T16:29:08;4.40;99.90
39919;DHT22;25589;51.552;13.424;2023-02-26T16:31:35;3.50;99.90
39919;DHT22;25589;51.552;13.424;2023-02-26T16:34:04;4.60;99.90
39919;DHT22;25589;51.552;13.424;2023-02-26T16:36:45;4.50;99.90
39919;DHT22;25589;51.552;13.424;2023-02-26T16:39:19;5.10;99.90
39919;DHT22;25589;51.552;13.424;2023-02-26T16:41:47;4.50;99.90
39919;DHT22;25589;51.552;13.424;2023-02-26T16:46:54;5.20;99.90
39919;DHT22;25589;51.552;13.424;2023-02-26T16:49:24;3.60;99.90
39919;DHT22;25589;51.552;13.424;2023-02-26T16:54:24;4.20;99.90
39919;DHT22;25589;51.552;13.424;2023-02-26T16:56:59;3.50;99.90
39919;DHT22;25589;51.552;13.424;2023-02-26T16:59:33;4.00;99.90
39919;DHT22;25589;51.552;13.424;2023-02-26T17:02:04;4.10;99.90
39919;DHT22;25589;51.552;13.424;2023-02-26T17:04:35;4.30;99.90
39919;DHT22;25589;51.552;13.424;2023-02-26T17:07:04;3.80;99.90
39919;DHT22;25589;51.552;13.424;2023-02-26T17:09:39;4.20;99.90
39919;DHT22;25589;51.552;13.424;2023-02-26T17:12:19;3.40;99.90
39919;DHT22;25589;51.552;13.424;2023-02-26T17:14:54;4.20;99.90
39919;DHT22;25589;51.552;13.424;2023-02-26T17:17:21;4.20;99.90
39919;DHT22;25589;51.552;13.424;2023-02-26T17:19:47;3.70;99.90
39919;DHT22;25589;51.552;13.424;2023-02-26T17:22:14;3.60;99.90
39919;DHT22;25589;51.552;13.424;2023-02-26T17:24:42;3.80;99.90
39919;DHT22;25589;51.552;13.424;2023-02-26T17:27:33;3.50;99.90
39919;DHT22;25589;51.552;13.424;2023-02-26T17:30:02;3.40;99.90
39919;DHT22;25589;51.552;13.424;2023-02-26T17:32:29;3.50;99.90
39919;DHT22;25589;51.552;13.424;2023-02-26T17:34:57;3.60;99.90
39919;DHT22;25589;51.552;13.424;2023-02-26T17:37:24;3.40;99.90
39919;DHT22;25589;51.552;13.424;2023-02-26T17:42:22;3.70;99.90
39919;DHT22;25589;51.552;13.424;2023-02-26T17:44:51;3.40;99.90
39919;DHT22;25589;51.552;13.424;2023-02-26T17:47:22;3.70;99.90
39919;DHT22;25589;51.552;13.424;2023-02-26T17:49:48;3.50;99.90
39919;DHT22;25589;51.552;13.424;2023-02-26T17:52:14;3.50;99.90
39919;DHT22;25589;51.552;13.424;2023-02-26T17:54:40;3.50;99.90
39919;DHT22;25589;51.552;13.424;2023-02-26T17:57:10;3.40;99.90
39919;DHT22;25589;51.552;13.424;2023-02-26T17:59:37;3.00;99.90
39919;DHT22;25589;51.552;13.424;2023-02-26T18:02:17;3.40;99.90
39919;DHT22;25589;51.552;13.424;2023-02-26T18:04:44;3.30;99.90
39919;DHT22;25589;51.552;13.424;2023-02-26T18:09:41;3.80;99.90
39919;DHT22;25589;51.552;13.424;2023-02-26T18:12:15;3.20;99.90
39919;DHT22;25589;51.552;13.424;2023-02-26T18:14:41;3.80;99.90
39919;DHT22;25589;51.552;13.424;2023-02-26T18:17:18;3.40;99.90
39919;DHT22;25589;51.552;13.424;2023-02-26T18:19:45;2.50;99.90
39919;DHT22;25589;51.552;13.424;2023-02-26T18:24:40;3.20;99.90
39919;DHT22;25589;51.552;13.424;2023-02-26T18:27:14;2.70;99.90
39919;DHT22;25589;51.552;13.424;2023-02-26T18:29:40;3.20;99.90
39919;DHT22;25589;51.552;13.424;2023-02-26T18:32:11;3.80;99.90
39919;DHT22;25589;51.552;13.424;2023-02-26T18:34:36;4.20;99.90
39919;DHT22;25589;51.552;13.424;2023-02-26T18:37:02;3.20;99.90
39919;DHT22;25589;51.552;13.424;2023-02-26T18:39:28;3.30;99.90
39919;DHT22;25589;51.552;13.424;2023-02-26T18:41:56;3.20;99.90
39919;DHT22;25589;51.552;13.424;2023-02-26T18:44:22;3.40;99.90
39919;DHT22;25589;51.552;13.424;2023-02-26T18:46:48;3.30;99.90
39919;DHT22;25589;51.552;13.424;2023-02-26T18:49:18;3.20;99.90
39919;DHT22;25589;51.552;13.424;2023-02-26T18:51:44;3.30;99.90